createdAt,value
2022-08-25T00:00:44.571Z,22.48
2022-08-25T00:06:32.134Z,22.48
2022-08-25T00:12:20.357Z,22.43
2022-08-25T00:18:19.531Z,22.32
2022-08-25T00:24:09.054Z,22.43
2022-08-25T00:29:56.108Z,22.47
2022-08-25T00:35:44.673Z,22.47
2022-08-25T00:41:35.602Z,22.40
2022-08-25T00:47:22.574Z,22.33
2022-08-25T00:53:09.912Z,22.34
2022-08-25T00:58:57.793Z,22.37
2022-08-25T01:04:48.745Z,22.50
2022-08-25T01:10:41.261Z,22.39
2022-08-25T01:16:28.577Z,22.39
2022-08-25T01:22:17.374Z,22.51
2022-08-25T01:28:05.147Z,22.56
2022-08-25T01:33:52.589Z,22.55
2022-08-25T01:39:39.793Z,22.60
2022-08-25T01:45:27.360Z,22.67
2022-08-25T01:51:19.207Z,22.72
2022-08-25T01:57:09.384Z,22.64
2022-08-25T02:02:57.774Z,22.69
2022-08-25T02:08:45.280Z,22.54
2022-08-25T02:14:36.670Z,22.32
2022-08-25T02:20:24.539Z,21.64
2022-08-25T02:26:16.630Z,21.92
2022-08-25T02:32:05.078Z,21.94
2022-08-25T02:37:52.501Z,21.94
2022-08-25T02:43:43.160Z,21.90
2022-08-25T02:49:37.273Z,21.84
2022-08-25T02:55:24.259Z,21.37
2022-08-25T03:01:14.089Z,21.57
2022-08-25T03:07:01.144Z,21.28
2022-08-25T03:12:48.059Z,21.25
2022-08-25T03:18:35.761Z,21.49
2022-08-25T03:24:23.614Z,21.50
2022-08-25T03:30:11.717Z,21.53
2022-08-25T03:35:59.455Z,21.67
2022-08-25T03:41:49.956Z,21.59
2022-08-25T03:47:52.689Z,21.57
2022-08-25T03:53:42.080Z,21.50
2022-08-25T03:59:29.494Z,21.39
2022-08-25T04:05:16.516Z,21.32
2022-08-25T04:11:24.448Z,21.52
2022-08-25T04:17:14.256Z,21.37
2022-08-25T04:23:01.573Z,21.47
2022-08-25T04:28:49.624Z,21.40
2022-08-25T04:34:39.104Z,21.40
2022-08-25T04:40:29.146Z,21.38
2022-08-25T04:46:22.295Z,21.37
2022-08-25T04:52:14.311Z,21.40
2022-08-25T04:58:01.513Z,21.43
2022-08-25T05:03:57.684Z,21.27
2022-08-25T05:09:45.621Z,21.14
2022-08-25T05:15:50.988Z,21.34
2022-08-25T05:21:38.583Z,20.84
2022-08-25T05:27:25.755Z,20.89
2022-08-25T05:33:13.530Z,21.03
2022-08-25T05:39:01.046Z,21.09
2022-08-25T05:44:48.213Z,20.80
2022-08-25T05:50:35.186Z,20.32
2022-08-25T05:56:22.154Z,20.16
2022-08-25T06:02:29.790Z,20.20
2022-08-25T06:08:16.732Z,20.16
2022-08-25T06:14:04.732Z,20.23
2022-08-25T06:19:56.528Z,20.55
2022-08-25T06:25:49.910Z,20.44
2022-08-25T06:31:38.300Z,20.40
2022-08-25T06:37:26.291Z,20.81
2022-08-25T06:43:13.030Z,20.66
2022-08-25T06:49:00.889Z,20.73
2022-08-25T06:54:49.095Z,20.88
2022-08-25T07:00:41.407Z,20.92
2022-08-25T07:06:32.305Z,20.95
2022-08-25T07:12:19.592Z,20.89
2022-08-25T07:18:08.933Z,20.67
2022-08-25T07:23:58.887Z,20.41
2022-08-25T07:29:46.509Z,20.75
2022-08-25T07:35:37.483Z,20.69
2022-08-25T07:41:26.309Z,20.69
2022-08-25T07:47:15.764Z,20.39
2022-08-25T07:53:03.084Z,20.73
2022-08-25T07:58:49.904Z,20.71
2022-08-25T08:04:37.760Z,21.02
2022-08-25T08:10:47.834Z,20.94
2022-08-25T08:16:36.027Z,21.16
2022-08-25T08:22:24.297Z,21.10
2022-08-25T08:28:18.868Z,20.78
2022-08-25T08:34:06.385Z,20.69
2022-08-25T08:39:58.418Z,20.65
2022-08-25T08:45:59.581Z,20.42
2022-08-25T08:51:58.061Z,20.19
2022-08-25T09:03:44.812Z,20.08
2022-08-25T09:09:41.884Z,20.13
2022-08-25T09:16:00.280Z,20.01
2022-08-25T09:22:33.293Z,19.90
2022-08-25T09:28:28.598Z,19.74
2022-08-25T09:34:39.309Z,20.00
2022-08-25T09:41:03.276Z,20.30
2022-08-25T09:47:20.937Z,20.51
2022-08-25T09:59:35.659Z,20.40
2022-08-25T10:05:26.316Z,20.61
2022-08-25T10:11:30.226Z,20.84
2022-08-25T10:17:27.451Z,21.06
2022-08-25T10:23:15.156Z,21.03
2022-08-25T10:29:13.245Z,21.32
2022-08-25T10:35:27.340Z,21.34
2022-08-25T10:41:36.990Z,21.10
2022-08-25T10:47:31.064Z,21.20
2022-08-25T10:53:56.314Z,21.21
2022-08-25T11:00:01.907Z,21.11
2022-08-25T11:05:59.275Z,20.81
2022-08-25T11:12:15.634Z,20.86
2022-08-25T11:18:14.842Z,20.77
2022-08-25T11:24:14.403Z,20.71
2022-08-25T11:30:10.115Z,21.02
2022-08-25T11:36:36.942Z,21.37
2022-08-25T11:42:44.773Z,21.44
2022-08-25T11:49:00.984Z,21.64
2022-08-25T11:54:51.940Z,21.99
2022-08-25T12:00:54.578Z,22.28
2022-08-25T12:07:07.455Z,22.36
2022-08-25T12:13:27.223Z,22.43
2022-08-25T12:19:46.156Z,22.45
2022-08-25T12:25:45.928Z,23.11
2022-08-25T12:32:04.666Z,23.36
2022-08-25T12:38:44.747Z,23.40
2022-08-25T12:45:18.002Z,23.11
2022-08-25T12:51:18.105Z,23.31
2022-08-25T12:57:32.062Z,23.04
2022-08-25T13:03:49.766Z,23.07
2022-08-25T13:10:05.741Z,23.42
2022-08-25T13:16:25.585Z,23.67
2022-08-25T13:22:18.381Z,23.68
2022-08-25T13:28:11.088Z,23.92
2022-08-25T13:34:09.165Z,23.92
2022-08-25T13:40:19.538Z,24.36
2022-08-25T13:47:06.392Z,24.36
2022-08-25T13:53:12.974Z,24.67
2022-08-25T13:59:40.218Z,24.55
2022-08-25T14:05:45.575Z,24.14
2022-08-25T14:11:57.045Z,23.63
2022-08-25T14:18:26.959Z,23.36
2022-08-25T14:24:22.622Z,23.37
2022-08-25T14:30:29.126Z,23.56
2022-08-25T14:36:20.689Z,23.97
2022-08-25T14:42:13.667Z,23.99
2022-08-25T14:49:09.414Z,23.14
2022-08-25T14:55:01.293Z,23.41
2022-08-25T15:00:54.415Z,23.74
2022-08-25T15:06:56.223Z,23.54
2022-08-25T15:20:13.448Z,22.98
2022-08-25T15:26:14.205Z,22.87
2022-08-25T15:32:10.642Z,22.80
2022-08-25T15:38:21.306Z,23.08
2022-08-25T15:44:29.667Z,22.84
2022-08-25T15:50:25.437Z,22.68
2022-08-25T15:56:26.969Z,22.69
2022-08-25T16:02:23.164Z,22.18
2022-08-25T16:08:43.705Z,21.99
2022-08-25T16:14:35.893Z,21.43
2022-08-25T16:20:23.701Z,21.31
2022-08-25T16:26:15.827Z,21.17
2022-08-25T16:32:07.622Z,21.16
2022-08-25T16:37:55.125Z,20.94
2022-08-25T16:43:48.323Z,20.84
2022-08-25T16:49:44.002Z,20.64
2022-08-25T16:55:39.159Z,20.70
2022-08-25T17:01:38.550Z,20.70
2022-08-25T17:07:29.605Z,20.67
2022-08-25T17:13:23.017Z,20.86
2022-08-25T17:19:17.864Z,20.65
2022-08-25T17:25:06.996Z,20.64
2022-08-25T17:31:12.781Z,20.52
2022-08-25T17:37:04.472Z,20.35
2022-08-25T17:43:14.356Z,20.15
2022-08-25T17:49:37.541Z,20.10
2022-08-25T17:55:38.196Z,20.14
2022-08-25T18:01:45.911Z,20.23
2022-08-25T18:07:50.410Z,20.26
2022-08-25T18:13:53.715Z,20.22
2022-08-25T18:21:22.467Z,20.17
2022-08-25T18:28:09.177Z,20.27
2022-08-25T18:33:00.994Z,19.87
2022-08-25T18:39:10.462Z,19.82
2022-08-25T18:45:05.503Z,19.60
2022-08-25T18:51:01.087Z,19.68
2022-08-25T19:03:01.569Z,19.50
2022-08-25T19:09:23.075Z,19.24
2022-08-25T19:15:17.388Z,19.25
2022-08-25T19:21:07.381Z,19.21
2022-08-25T19:26:56.696Z,19.53
2022-08-25T19:32:45.983Z,19.48
2022-08-25T19:38:35.557Z,19.14
2022-08-25T19:44:23.617Z,19.05
2022-08-25T19:50:16.806Z,19.32
2022-08-25T19:56:15.336Z,19.04
2022-08-25T20:02:03.870Z,19.20
2022-08-25T20:07:54.784Z,19.08
2022-08-25T20:14:39.007Z,19.31
2022-08-25T20:20:32.495Z,19.23
2022-08-25T20:26:27.038Z,18.92
2022-08-25T20:32:23.554Z,18.76
2022-08-25T20:38:11.885Z,18.67
2022-08-25T20:44:11.666Z,18.68
2022-08-25T20:56:26.272Z,18.93
2022-08-25T21:02:53.924Z,19.12
2022-08-25T21:08:51.306Z,19.01
2022-08-25T21:14:41.834Z,18.82
2022-08-25T21:20:29.089Z,19.03
2022-08-25T21:26:20.131Z,19.17
2022-08-25T21:32:07.894Z,19.19
2022-08-25T21:37:56.704Z,19.05
2022-08-25T21:43:58.897Z,18.73
2022-08-25T21:49:52.596Z,18.65
2022-08-25T21:55:59.248Z,18.57
2022-08-25T22:02:04.426Z,18.60
2022-08-25T22:07:51.229Z,18.31
2022-08-25T22:13:41.239Z,18.30
2022-08-25T22:19:30.180Z,18.19
2022-08-25T22:25:20.439Z,18.28
2022-08-25T22:31:12.741Z,18.58
2022-08-25T22:37:03.637Z,18.60
2022-08-25T22:42:53.562Z,18.62
2022-08-25T22:48:42.934Z,18.61
2022-08-25T22:54:32.455Z,18.53
2022-08-25T23:00:20.357Z,18.45
2022-08-25T23:06:24.641Z,18.42
2022-08-25T23:12:12.488Z,18.41
2022-08-25T23:17:59.450Z,18.40
2022-08-25T23:23:47.978Z,18.37
2022-08-25T23:29:39.001Z,18.16
2022-08-25T23:35:26.733Z,18.08
2022-08-25T23:41:19.329Z,18.02
2022-08-25T23:47:07.171Z,18.18
2022-08-25T23:52:53.999Z,18.17
2022-08-25T23:58:40.809Z,17.94
